createdAt,value
2023-02-24T00:00:47.392Z,7.15
2023-02-24T00:02:01.760Z,7.45
2023-02-24T00:03:11.664Z,7.75
2023-02-24T00:04:21.165Z,8.63
2023-02-24T00:05:26.117Z,8.27
2023-02-24T00:06:37.286Z,7.47
2023-02-24T00:07:41.846Z,8.80
2023-02-24T00:08:47.851Z,8.95
2023-02-24T00:10:01.371Z,8.32
2023-02-24T00:11:14.992Z,6.97
2023-02-24T00:12:21.296Z,7.85
2023-02-24T00:13:26.381Z,7.72
2023-02-24T00:14:36.575Z,7.32
2023-02-24T00:15:40.841Z,8.10
2023-02-24T00:16:46.915Z,9.27
2023-02-24T00:17:51.420Z,9.10
2023-02-24T00:18:55.747Z,8.38
2023-02-24T00:20:00.053Z,8.20
2023-02-24T00:21:17.211Z,8.60
2023-02-24T00:22:21.824Z,7.75
2023-02-24T00:23:26.195Z,8.57
2023-02-24T00:24:31.519Z,6.88
2023-02-24T00:25:36.336Z,11.00
2023-02-24T00:26:41.752Z,8.63
2023-02-24T00:27:46.139Z,9.88
2023-02-24T00:28:50.388Z,8.65
2023-02-24T00:29:56.117Z,8.43
2023-02-24T00:31:20.678Z,9.35
2023-02-24T00:32:25.444Z,8.95
2023-02-24T00:33:31.231Z,7.90
2023-02-24T00:34:37.814Z,8.25
2023-02-24T00:35:42.244Z,8.95
2023-02-24T00:36:46.134Z,7.72
2023-02-24T00:37:51.655Z,8.95
2023-02-24T00:39:11.281Z,6.75
2023-02-24T00:40:23.769Z,7.90
2023-02-24T00:41:32.926Z,8.18
2023-02-24T00:42:40.353Z,6.90
2023-02-24T00:43:49.989Z,7.75
2023-02-24T00:44:54.702Z,8.18
2023-02-24T00:46:02.862Z,9.35
2023-02-24T00:47:10.785Z,8.38
2023-02-24T00:48:15.932Z,8.63
2023-02-24T00:49:21.423Z,7.88
2023-02-24T00:50:25.671Z,8.40
2023-02-24T00:51:29.505Z,11.07
2023-02-24T00:52:33.570Z,8.77
2023-02-24T00:53:40.480Z,9.30
2023-02-24T00:54:51.613Z,8.10
2023-02-24T00:56:02.566Z,9.02
2023-02-24T00:57:08.503Z,7.72
2023-02-24T00:58:14.052Z,8.52
2023-02-24T00:59:19.044Z,8.27
2023-02-24T01:00:23.836Z,8.52
2023-02-24T01:01:33.174Z,8.68
2023-02-24T01:02:38.638Z,10.20
2023-02-24T01:03:42.973Z,7.93
2023-02-24T01:04:47.321Z,9.43
2023-02-24T01:05:51.682Z,7.03
2023-02-24T01:07:00.565Z,9.45
2023-02-24T01:08:05.303Z,8.90
2023-02-24T01:09:20.375Z,8.38
2023-02-24T01:10:27.188Z,8.05
2023-02-24T01:11:54.696Z,8.13
2023-02-24T01:12:58.848Z,7.05
2023-02-24T01:14:13.906Z,7.88
2023-02-24T01:15:21.389Z,9.00
2023-02-24T01:16:25.888Z,8.80
2023-02-24T01:17:30.128Z,8.68
2023-02-24T01:18:34.729Z,7.75
2023-02-24T01:19:38.829Z,6.75
2023-02-24T01:20:42.931Z,7.32
2023-02-24T01:21:47.652Z,7.50
2023-02-24T01:22:56.925Z,5.85
2023-02-24T01:24:01.235Z,7.05
2023-02-24T01:25:08.168Z,7.05
2023-02-24T01:26:11.888Z,8.45
2023-02-24T01:27:19.603Z,7.22
2023-02-24T01:28:23.668Z,10.00
2023-02-24T01:29:27.680Z,9.40
2023-02-24T01:30:31.541Z,9.02
2023-02-24T01:31:36.532Z,7.50
2023-02-24T01:32:40.994Z,8.25
2023-02-24T01:33:46.243Z,9.20
2023-02-24T01:34:54.022Z,9.65
2023-02-24T01:35:58.560Z,8.45
2023-02-24T01:37:02.704Z,7.88
2023-02-24T01:38:06.607Z,8.43
2023-02-24T01:39:14.553Z,7.68
2023-02-24T01:40:21.727Z,9.98
2023-02-24T01:41:31.344Z,8.20
2023-02-24T01:42:35.813Z,8.73
2023-02-24T01:44:29.740Z,7.18
2023-02-24T01:45:36.944Z,8.75
2023-02-24T01:46:44.555Z,8.77
2023-02-24T01:47:51.678Z,9.73
2023-02-24T01:49:03.482Z,9.05
2023-02-24T01:50:15.242Z,7.15
2023-02-24T01:51:19.902Z,9.10
2023-02-24T01:52:34.859Z,9.00
2023-02-24T01:53:39.472Z,8.65
2023-02-24T01:54:54.850Z,8.18
2023-02-24T01:55:59.567Z,9.32
2023-02-24T01:57:06.065Z,9.25
2023-02-24T01:58:28.820Z,9.25
2023-02-24T01:59:38.135Z,8.25
2023-02-24T02:00:48.462Z,8.02
2023-02-24T02:02:04.464Z,8.63
2023-02-24T02:03:31.508Z,9.73
2023-02-24T02:04:57.470Z,9.13
2023-02-24T02:06:09.220Z,11.65
2023-02-24T02:07:20.064Z,10.70
2023-02-24T02:08:25.213Z,9.90
2023-02-24T02:09:29.891Z,8.23
2023-02-24T02:10:35.100Z,9.95
2023-02-24T02:11:38.990Z,10.00
2023-02-24T02:12:45.185Z,11.07
2023-02-24T02:13:52.884Z,8.68
2023-02-24T02:14:59.864Z,9.00
2023-02-24T02:16:38.550Z,11.45
2023-02-24T02:17:58.014Z,10.18
2023-02-24T02:19:16.673Z,8.73
2023-02-24T02:20:50.162Z,9.00
2023-02-24T02:22:02.931Z,7.80
2023-02-24T02:23:58.171Z,8.20
2023-02-24T02:25:34.235Z,9.70
2023-02-24T02:26:50.458Z,8.73
2023-02-24T02:28:15.719Z,10.80
2023-02-24T02:29:58.472Z,9.68
2023-02-24T02:31:21.217Z,9.43
2023-02-24T02:33:02.302Z,10.38
2023-02-24T02:35:06.956Z,9.45
2023-02-24T02:36:43.855Z,8.63
2023-02-24T02:38:12.229Z,8.93
2023-02-24T02:39:59.346Z,9.55
2023-02-24T02:41:26.555Z,8.02
2023-02-24T02:43:27.637Z,9.07
2023-02-24T02:44:45.350Z,10.07
2023-02-24T02:46:05.212Z,10.07
2023-02-24T02:47:35.323Z,8.93
2023-02-24T02:48:58.291Z,8.68
2023-02-24T02:50:28.002Z,10.25
2023-02-24T02:51:41.722Z,10.10
2023-02-24T02:53:06.301Z,10.23
2023-02-24T02:54:25.157Z,9.50
2023-02-24T02:55:54.073Z,9.27
2023-02-24T02:57:21.042Z,8.80
2023-02-24T02:58:34.299Z,9.35
2023-02-24T02:59:57.327Z,10.60
2023-02-24T03:01:07.604Z,8.38
2023-02-24T03:02:15.639Z,9.50
2023-02-24T03:03:20.057Z,9.52
2023-02-24T03:04:26.867Z,8.77
2023-02-24T03:05:47.552Z,8.80
2023-02-24T03:07:02.145Z,9.95
2023-02-24T03:08:12.247Z,7.63
2023-02-24T03:09:32.660Z,10.13
2023-02-24T03:10:37.558Z,9.52
2023-02-24T03:12:00.002Z,10.10
2023-02-24T03:13:11.214Z,10.65
2023-02-24T03:14:21.895Z,8.27
2023-02-24T03:15:30.488Z,9.88
2023-02-24T03:16:36.018Z,10.45
2023-02-24T03:17:45.809Z,9.25
2023-02-24T03:19:06.390Z,10.13
2023-02-24T03:20:23.172Z,10.23
2023-02-24T03:21:45.849Z,10.80
2023-02-24T03:23:03.734Z,9.93
2023-02-24T03:24:09.681Z,9.25
2023-02-24T03:25:14.432Z,11.18
2023-02-24T03:26:46.751Z,9.27
2023-02-24T03:27:58.373Z,10.73
2023-02-24T03:29:24.420Z,8.77
2023-02-24T03:30:44.908Z,8.73
2023-02-24T03:32:10.682Z,10.00
2023-02-24T03:33:36.682Z,9.25
2023-02-24T03:35:26.721Z,9.50
2023-02-24T03:36:31.446Z,8.48
2023-02-24T03:37:37.264Z,8.95
2023-02-24T03:38:44.131Z,8.38
2023-02-24T03:39:53.554Z,9.43
2023-02-24T03:40:59.335Z,10.20
2023-02-24T03:42:25.445Z,9.23
2023-02-24T03:43:36.942Z,9.30
2023-02-24T03:44:41.939Z,9.68
2023-02-24T03:45:47.318Z,8.73
2023-02-24T03:46:55.444Z,8.68
2023-02-24T03:48:04.039Z,8.75
2023-02-24T03:49:16.599Z,9.18
2023-02-24T03:50:22.462Z,7.50
2023-02-24T03:51:27.952Z,8.60
2023-02-24T03:52:32.778Z,10.80
2023-02-24T03:54:11.401Z,9.57
2023-02-24T03:56:01.776Z,9.98
2023-02-24T03:58:01.386Z,9.77
2023-02-24T03:59:53.223Z,7.32
2023-02-24T04:01:09.943Z,6.78
2023-02-24T04:02:27.015Z,5.95
2023-02-24T04:03:58.308Z,6.68
2023-02-24T04:05:22.839Z,6.28
2023-02-24T04:06:56.098Z,3.72
2023-02-24T04:08:08.197Z,5.60
2023-02-24T04:09:27.646Z,4.20
2023-02-24T04:10:53.088Z,3.63
2023-02-24T04:12:17.681Z,3.88
2023-02-24T04:13:47.475Z,3.33
2023-02-24T04:15:20.023Z,3.70
2023-02-24T04:16:36.662Z,3.42
2023-02-24T04:17:46.793Z,3.85
2023-02-24T04:18:53.305Z,3.67
2023-02-24T04:20:10.609Z,2.80
2023-02-24T04:21:19.618Z,2.58
2023-02-24T04:22:27.441Z,3.95
2023-02-24T04:23:39.605Z,2.78
2023-02-24T04:24:50.678Z,3.28
2023-02-24T04:25:58.316Z,2.90
2023-02-24T04:27:08.302Z,2.40
2023-02-24T04:28:15.363Z,3.58
2023-02-24T04:29:24.885Z,2.70
2023-02-24T04:30:36.129Z,2.97
2023-02-24T04:31:40.844Z,2.38
2023-02-24T04:32:45.183Z,3.03
2023-02-24T04:33:53.518Z,3.17
2023-02-24T04:35:13.155Z,2.17
2023-02-24T04:36:19.122Z,2.47
2023-02-24T04:37:23.335Z,2.95
2023-02-24T04:38:27.726Z,2.65
2023-02-24T04:39:32.601Z,2.38
2023-02-24T04:40:37.014Z,3.25
2023-02-24T04:41:40.928Z,2.30
2023-02-24T04:42:49.254Z,1.70
2023-02-24T04:43:53.315Z,2.67
2023-02-24T04:44:58.805Z,2.15
2023-02-24T04:46:07.992Z,2.13
2023-02-24T04:47:12.942Z,2.88
2023-02-24T04:48:17.051Z,2.92
2023-02-24T04:49:22.437Z,2.80
2023-02-24T04:50:28.741Z,2.15
2023-02-24T04:51:34.132Z,2.30
2023-02-24T04:52:38.987Z,2.70
2023-02-24T04:53:43.243Z,2.28
2023-02-24T04:54:48.425Z,2.38
2023-02-24T04:55:53.752Z,2.72
2023-02-24T04:56:59.228Z,2.58
2023-02-24T04:58:04.333Z,2.63
2023-02-24T04:59:10.774Z,3.30
2023-02-24T05:00:22.993Z,2.50
2023-02-24T05:01:27.274Z,1.83
2023-02-24T05:02:31.955Z,2.75
2023-02-24T05:03:36.951Z,2.30
2023-02-24T05:04:42.443Z,2.38
2023-02-24T05:05:57.062Z,2.13
2023-02-24T05:07:01.360Z,4.03
2023-02-24T05:08:11.083Z,1.77
2023-02-24T05:09:18.416Z,2.50
2023-02-24T05:10:28.223Z,1.70
2023-02-24T05:11:35.437Z,2.78
2023-02-24T05:12:40.247Z,3.25
2023-02-24T05:13:47.967Z,2.30
2023-02-24T05:14:55.148Z,4.00
2023-02-24T05:16:08.366Z,2.60
2023-02-24T05:17:14.489Z,2.85
2023-02-24T05:18:18.767Z,2.20
2023-02-24T05:19:41.343Z,2.20
2023-02-24T05:21:07.997Z,2.45
2023-02-24T05:22:14.666Z,2.22
2023-02-24T05:23:18.832Z,2.78
2023-02-24T05:24:23.064Z,3.17
2023-02-24T05:25:27.398Z,2.13
2023-02-24T05:26:32.300Z,2.60
2023-02-24T05:27:39.339Z,2.72
2023-02-24T05:28:52.713Z,2.85
2023-02-24T05:29:57.612Z,2.72
2023-02-24T05:31:34.771Z,3.30
2023-02-24T05:32:39.473Z,3.90
2023-02-24T05:33:46.630Z,2.70
2023-02-24T05:34:50.606Z,3.80
2023-02-24T05:35:56.760Z,3.33
2023-02-24T05:37:10.989Z,3.20
2023-02-24T05:38:19.908Z,3.80
2023-02-24T05:39:26.849Z,3.63
2023-02-24T05:40:31.336Z,3.08
2023-02-24T05:41:42.026Z,2.75
2023-02-24T05:42:47.382Z,3.08
2023-02-24T05:43:56.649Z,2.88
2023-02-24T05:45:02.394Z,2.75
2023-02-24T05:46:07.374Z,3.25
2023-02-24T05:47:11.953Z,3.00
2023-02-24T05:48:16.881Z,2.78
2023-02-24T05:49:27.302Z,3.17
2023-02-24T05:50:32.466Z,3.15
2023-02-24T05:51:39.613Z,3.00
2023-02-24T05:52:46.149Z,2.67
2023-02-24T05:53:55.758Z,2.80
2023-02-24T05:55:03.028Z,2.53
2023-02-24T05:56:09.469Z,3.83
2023-02-24T05:57:21.196Z,2.28
2023-02-24T05:58:29.312Z,2.78
2023-02-24T05:59:35.201Z,2.65
2023-02-24T06:00:40.625Z,3.33
2023-02-24T06:01:48.860Z,3.15
2023-02-24T06:02:53.255Z,3.60
2023-02-24T06:04:07.551Z,3.28
2023-02-24T06:05:25.605Z,3.22
2023-02-24T06:06:31.467Z,3.65
2023-02-24T06:07:36.254Z,4.18
2023-02-24T06:08:50.100Z,3.88
2023-02-24T06:10:00.373Z,2.97
2023-02-24T06:11:04.915Z,3.60
2023-02-24T06:12:16.806Z,3.85
2023-02-24T06:13:23.211Z,2.30
2023-02-24T06:14:29.044Z,3.17
2023-02-24T06:15:37.768Z,2.72
2023-02-24T06:16:51.728Z,3.20
2023-02-24T06:18:20.326Z,3.88
2023-02-24T06:19:27.505Z,2.88
2023-02-24T06:20:37.815Z,3.83
2023-02-24T06:21:46.983Z,3.28
2023-02-24T06:22:57.780Z,3.22
2023-02-24T06:24:02.764Z,2.97
2023-02-24T06:25:11.807Z,3.65
2023-02-24T06:26:19.728Z,3.78
2023-02-24T06:27:25.583Z,4.10
2023-02-24T06:28:34.109Z,3.25
2023-02-24T06:29:39.280Z,2.75
2023-02-24T06:30:43.889Z,4.07
2023-02-24T06:31:50.135Z,2.75
2023-02-24T06:32:57.654Z,2.63
2023-02-24T06:34:03.914Z,3.47
2023-02-24T06:35:09.761Z,3.22
2023-02-24T06:36:15.542Z,3.55
2023-02-24T06:37:21.196Z,4.30
2023-02-24T06:38:26.327Z,3.85
2023-02-24T06:39:36.186Z,3.83
2023-02-24T06:40:42.898Z,3.05
2023-02-24T06:41:53.077Z,3.33
2023-02-24T06:42:57.285Z,3.08
2023-02-24T06:44:01.875Z,3.55
2023-02-24T06:45:08.756Z,4.07
2023-02-24T06:46:16.520Z,2.42
2023-02-24T06:47:23.092Z,3.22
2023-02-24T06:48:29.241Z,2.90
2023-02-24T06:49:37.984Z,3.20
2023-02-24T06:50:46.772Z,2.85
2023-02-24T06:52:03.695Z,2.45
2023-02-24T06:53:17.117Z,3.15
2023-02-24T06:54:30.994Z,3.38
2023-02-24T06:55:37.022Z,2.80
2023-02-24T06:56:44.426Z,3.88
2023-02-24T06:58:04.507Z,2.90
2023-02-24T06:59:16.341Z,3.28
2023-02-24T07:00:36.880Z,4.10
2023-02-24T07:01:47.196Z,4.05
2023-02-24T07:02:54.604Z,3.60
2023-02-24T07:04:08.262Z,4.15
2023-02-24T07:05:15.301Z,4.22
2023-02-24T07:06:26.829Z,3.25
2023-02-24T07:07:32.206Z,3.80
2023-02-24T07:08:41.413Z,3.47
2023-02-24T07:09:46.154Z,3.58
2023-02-24T07:11:01.515Z,3.35
2023-02-24T07:12:11.784Z,3.90
2023-02-24T07:13:17.212Z,3.83
2023-02-24T07:14:27.150Z,3.42
2023-02-24T07:15:32.370Z,4.05
2023-02-24T07:16:39.627Z,2.83
2023-02-24T07:17:48.280Z,3.15
2023-02-24T07:19:00.153Z,2.85
2023-02-24T07:20:12.473Z,3.10
2023-02-24T07:21:18.432Z,4.15
2023-02-24T07:22:26.092Z,3.10
2023-02-24T07:23:30.664Z,3.15
2023-02-24T07:24:40.961Z,3.67
2023-02-24T07:25:46.850Z,3.65
2023-02-24T07:27:01.383Z,3.05
2023-02-24T07:28:07.607Z,2.78
2023-02-24T07:29:13.575Z,2.70
2023-02-24T07:30:18.825Z,2.95
2023-02-24T07:31:26.099Z,2.70
2023-02-24T07:32:33.682Z,2.70
2023-02-24T07:33:46.796Z,3.38
2023-02-24T07:34:52.139Z,3.95
2023-02-24T07:35:58.147Z,2.65
2023-02-24T07:37:08.510Z,3.15
2023-02-24T07:38:17.855Z,3.13
2023-02-24T07:39:24.355Z,3.92
2023-02-24T07:40:30.109Z,3.22
2023-02-24T07:41:38.023Z,3.58
2023-02-24T07:42:42.579Z,3.65
2023-02-24T07:43:46.770Z,3.28
2023-02-24T07:44:52.533Z,2.63
2023-02-24T07:45:58.285Z,3.60
2023-02-24T07:47:08.076Z,4.15
2023-02-24T07:48:15.986Z,3.47
2023-02-24T07:49:26.407Z,3.30
2023-02-24T07:50:33.060Z,3.97
2023-02-24T07:51:37.532Z,3.00
2023-02-24T07:52:51.294Z,4.18
2023-02-24T07:54:01.780Z,3.25
2023-02-24T07:55:11.563Z,3.88
2023-02-24T07:56:20.885Z,2.90
2023-02-24T07:57:26.182Z,3.45
2023-02-24T07:58:34.636Z,3.25
2023-02-24T07:59:40.408Z,2.53
2023-02-24T08:01:00.014Z,3.92
2023-02-24T08:02:07.940Z,3.67
2023-02-24T08:03:13.806Z,3.08
2023-02-24T08:04:30.869Z,3.40
2023-02-24T08:05:36.698Z,3.05
2023-02-24T08:06:48.085Z,3.30
2023-02-24T08:07:53.155Z,2.65
2023-02-24T08:09:01.330Z,2.65
2023-02-24T08:10:12.371Z,3.25
2023-02-24T08:11:16.425Z,3.15
2023-02-24T08:12:23.403Z,2.95
2023-02-24T08:13:37.777Z,2.92
2023-02-24T08:14:45.009Z,3.00
2023-02-24T08:15:56.848Z,3.58
2023-02-24T08:17:05.642Z,4.03
2023-02-24T08:18:10.231Z,2.53
2023-02-24T08:19:21.259Z,4.05
2023-02-24T08:20:30.377Z,3.75
2023-02-24T08:21:41.612Z,2.85
2023-02-24T08:22:47.644Z,3.33
2023-02-24T08:23:53.308Z,3.20
2023-02-24T08:25:06.582Z,4.00
2023-02-24T08:26:13.181Z,3.70
2023-02-24T08:27:31.079Z,2.78
2023-02-24T08:28:36.543Z,2.22
2023-02-24T08:29:58.239Z,3.30
2023-02-24T08:31:05.203Z,2.83
2023-02-24T08:32:11.066Z,3.38
2023-02-24T08:33:23.386Z,2.92
2023-02-24T08:34:32.143Z,4.53
2023-02-24T08:35:45.322Z,3.47
2023-02-24T08:36:56.138Z,3.30
2023-02-24T08:38:14.905Z,3.45
2023-02-24T08:39:19.650Z,3.30
2023-02-24T08:40:33.156Z,3.72
2023-02-24T08:41:55.168Z,2.63
2023-02-24T08:43:18.230Z,2.90
2023-02-24T08:44:23.484Z,3.10
2023-02-24T08:45:38.963Z,2.28
2023-02-24T08:46:49.631Z,3.10
2023-02-24T08:48:00.950Z,3.25
2023-02-24T08:49:11.364Z,3.85
2023-02-24T08:50:16.563Z,3.67
2023-02-24T08:51:44.146Z,3.15
2023-02-24T08:52:49.412Z,3.08
2023-02-24T08:54:00.194Z,3.03
2023-02-24T08:55:10.844Z,3.38
2023-02-24T08:56:24.611Z,3.05
2023-02-24T08:57:29.257Z,2.80
2023-02-24T08:58:33.654Z,3.03
2023-02-24T08:59:38.957Z,3.58
2023-02-24T09:01:00.254Z,2.70
2023-02-24T09:02:23.749Z,2.47
2023-02-24T09:03:30.250Z,3.10
2023-02-24T09:04:35.396Z,3.10
2023-02-24T09:05:40.465Z,2.58
2023-02-24T09:07:10.675Z,2.60
2023-02-24T09:08:16.048Z,2.80
2023-02-24T09:09:22.770Z,3.08
2023-02-24T09:10:28.879Z,2.33
2023-02-24T09:11:32.903Z,2.97
2023-02-24T09:12:41.692Z,2.60
2023-02-24T09:13:53.700Z,3.40
2023-02-24T09:15:05.068Z,2.55
2023-02-24T09:16:17.053Z,2.40
2023-02-24T09:17:54.135Z,2.25
2023-02-24T09:19:37.409Z,2.60
2023-02-24T09:21:16.677Z,2.60
2023-02-24T09:22:32.139Z,3.20
2023-02-24T09:23:46.742Z,3.90
2023-02-24T09:25:18.413Z,2.70
2023-02-24T09:26:24.420Z,2.70
2023-02-24T09:27:29.940Z,2.40
2023-02-24T09:28:48.952Z,3.75
2023-02-24T09:30:08.351Z,3.22
2023-02-24T09:31:17.445Z,3.15
2023-02-24T09:32:22.905Z,3.08
2023-02-24T09:33:42.407Z,3.08
2023-02-24T09:34:48.230Z,2.72
2023-02-24T09:36:25.484Z,3.00
2023-02-24T09:37:32.499Z,2.30
2023-02-24T09:38:58.786Z,3.15
2023-02-24T09:40:33.632Z,2.67
2023-02-24T09:41:54.954Z,2.80
2023-02-24T09:42:59.826Z,2.65
2023-02-24T09:44:18.751Z,3.53
2023-02-24T09:45:33.747Z,2.13
2023-02-24T09:46:56.496Z,2.60
2023-02-24T09:48:24.387Z,2.47
2023-02-24T09:50:04.506Z,2.55
2023-02-24T09:51:34.074Z,2.95
2023-02-24T09:53:00.115Z,2.40
2023-02-24T09:54:18.152Z,2.08
2023-02-24T09:56:04.106Z,2.40
2023-02-24T09:57:25.738Z,2.95
2023-02-24T09:59:13.720Z,2.58
2023-02-24T10:00:28.501Z,2.97
2023-02-24T10:02:44.621Z,2.50
2023-02-24T10:04:23.248Z,2.58
2023-02-24T10:05:49.550Z,3.20
2023-02-24T10:07:04.618Z,2.55
2023-02-24T10:08:26.046Z,2.70
2023-02-24T10:10:20.270Z,2.25
2023-02-24T10:11:35.178Z,2.83
2023-02-24T10:13:30.666Z,2.80
2023-02-24T10:15:19.317Z,2.35
2023-02-24T10:16:44.140Z,2.53
2023-02-24T10:18:00.432Z,2.38
2023-02-24T10:19:36.433Z,2.55
2023-02-24T10:20:54.310Z,2.80
2023-02-24T10:22:52.799Z,2.47
2023-02-24T10:24:07.927Z,2.90
2023-02-24T10:25:40.029Z,3.22
2023-02-24T10:27:01.261Z,2.70
2023-02-24T10:28:45.771Z,2.60
2023-02-24T10:30:26.601Z,3.78
2023-02-24T10:31:58.201Z,2.80
2023-02-24T10:33:36.698Z,3.70
2023-02-24T10:34:47.200Z,2.78
2023-02-24T10:36:09.844Z,2.60
2023-02-24T10:37:29.094Z,3.75
2023-02-24T10:38:41.562Z,2.38
2023-02-24T10:39:52.003Z,3.30
2023-02-24T10:41:07.062Z,2.28
2023-02-24T10:42:26.169Z,2.78
2023-02-24T10:43:32.789Z,3.13
2023-02-24T10:44:39.468Z,3.47
2023-02-24T10:45:47.987Z,3.63
2023-02-24T10:47:14.374Z,3.95
2023-02-24T10:48:40.738Z,3.92
2023-02-24T10:49:58.332Z,2.95
2023-02-24T10:51:37.613Z,3.97
2023-02-24T10:53:11.956Z,4.18
2023-02-24T10:54:34.216Z,3.55
2023-02-24T10:55:48.531Z,3.67
2023-02-24T10:57:08.278Z,3.22
2023-02-24T10:58:29.591Z,4.60
2023-02-24T11:00:17.006Z,4.35
2023-02-24T11:01:41.315Z,4.47
2023-02-24T11:03:11.102Z,3.67
2023-02-24T11:04:28.675Z,3.05
2023-02-24T11:05:56.776Z,3.05
2023-02-24T11:07:24.998Z,3.28
2023-02-24T11:09:05.429Z,3.63
2023-02-24T11:10:34.698Z,4.03
2023-02-24T11:12:03.703Z,4.20
2023-02-24T11:15:38.716Z,4.03
2023-02-24T11:17:15.053Z,3.75
2023-02-24T11:18:32.872Z,3.38
2023-02-24T11:20:06.979Z,3.20
2023-02-24T11:21:21.452Z,3.63
2023-02-24T11:22:42.578Z,3.55
2023-02-24T11:23:59.963Z,3.45
2023-02-24T11:25:15.078Z,3.97
2023-02-24T11:26:32.627Z,3.47
2023-02-24T11:27:36.729Z,2.88
2023-02-24T11:28:57.043Z,4.43
2023-02-24T11:30:26.944Z,4.05
2023-02-24T11:31:56.914Z,3.55
2023-02-24T11:33:30.329Z,4.65
2023-02-24T11:35:20.062Z,4.05
2023-02-24T11:36:58.922Z,4.18
2023-02-24T11:38:28.344Z,3.58
2023-02-24T11:39:46.463Z,4.55
2023-02-24T11:41:27.976Z,3.70
2023-02-24T11:42:40.253Z,4.00
2023-02-24T11:44:01.054Z,3.28
2023-02-24T11:45:34.962Z,3.25
2023-02-24T11:46:58.256Z,3.47
2023-02-24T11:48:20.962Z,5.38
2023-02-24T11:49:45.717Z,4.13
2023-02-24T11:51:05.318Z,3.75
2023-02-24T11:52:33.477Z,3.33
2023-02-24T11:54:11.143Z,4.07
2023-02-24T11:55:43.354Z,4.15
2023-02-24T11:57:04.825Z,4.60
2023-02-24T11:58:36.381Z,4.43
2023-02-24T11:59:55.061Z,4.00
2023-02-24T12:01:16.243Z,4.78
2023-02-24T12:02:39.136Z,4.47
2023-02-24T12:04:34.228Z,3.70
2023-02-24T12:05:50.173Z,3.80
2023-02-24T12:07:39.153Z,4.50
2023-02-24T12:08:53.824Z,3.55
2023-02-24T12:10:17.732Z,3.10
2023-02-24T12:11:39.585Z,3.38
2023-02-24T12:13:10.920Z,3.75
2023-02-24T12:14:43.655Z,3.53
2023-02-24T12:15:56.760Z,3.72
2023-02-24T12:17:31.516Z,3.42
2023-02-24T12:19:12.904Z,3.20
2023-02-24T12:20:31.456Z,2.97
2023-02-24T12:21:46.316Z,3.33
2023-02-24T12:23:02.045Z,3.00
2023-02-24T12:24:12.927Z,4.03
2023-02-24T12:25:45.170Z,2.65
2023-02-24T12:27:39.656Z,2.70
2023-02-24T12:29:10.330Z,3.67
2023-02-24T12:30:58.180Z,3.58
2023-02-24T12:32:26.886Z,2.15
2023-02-24T12:34:01.026Z,2.97
2023-02-24T12:35:57.011Z,3.47
2023-02-24T12:37:38.494Z,3.28
2023-02-24T12:39:14.418Z,2.58
2023-02-24T12:40:39.289Z,2.55
2023-02-24T12:42:38.386Z,2.33
2023-02-24T12:44:41.714Z,3.92
2023-02-24T12:46:14.789Z,2.28
2023-02-24T12:47:40.706Z,3.03
2023-02-24T12:49:10.549Z,3.08
2023-02-24T12:50:55.127Z,3.33
2023-02-24T12:54:07.574Z,2.65
2023-02-24T12:56:02.541Z,2.20
2023-02-24T12:57:57.202Z,2.35
2023-02-24T12:59:11.634Z,2.88
2023-02-24T13:00:53.197Z,2.83
2023-02-24T13:02:18.181Z,2.70
2023-02-24T13:03:48.542Z,3.08
2023-02-24T13:05:22.950Z,3.38
2023-02-24T13:06:54.313Z,2.08
2023-02-24T13:08:32.549Z,2.75
2023-02-24T13:10:02.103Z,3.50
2023-02-24T13:11:37.095Z,4.35
2023-02-24T13:13:04.159Z,3.20
2023-02-24T13:14:24.866Z,3.30
2023-02-24T13:15:34.007Z,3.67
2023-02-24T13:16:38.610Z,4.38
2023-02-24T13:17:58.870Z,3.85
2023-02-24T13:19:39.838Z,3.00
2023-02-24T13:20:45.505Z,3.78
2023-02-24T13:22:26.542Z,3.47
2023-02-24T13:23:44.170Z,3.38
2023-02-24T13:25:38.679Z,2.53
2023-02-24T13:26:47.573Z,4.20
2023-02-24T13:28:27.719Z,3.88
2023-02-24T13:29:51.687Z,4.22
2023-02-24T13:31:10.993Z,2.80
2023-02-24T13:32:39.658Z,3.88
2023-02-24T13:34:00.620Z,3.20
2023-02-24T13:35:31.057Z,3.70
2023-02-24T13:38:42.347Z,3.13
2023-02-24T13:39:49.023Z,3.78
2023-02-24T13:41:08.581Z,4.25
2023-02-24T13:42:29.861Z,3.22
2023-02-24T13:43:34.907Z,2.83
2023-02-24T13:44:53.549Z,3.22
2023-02-24T13:46:19.058Z,2.85
2023-02-24T13:48:15.426Z,3.75
2023-02-24T13:50:15.966Z,3.72
2023-02-24T13:51:59.658Z,2.50
2023-02-24T13:53:32.171Z,2.78
2023-02-24T13:55:15.230Z,2.95
2023-02-24T13:56:57.472Z,4.10
2023-02-24T13:58:27.024Z,3.50
2023-02-24T14:00:13.847Z,3.28
2023-02-24T14:01:21.379Z,2.60
2023-02-24T14:02:31.373Z,3.35
2023-02-24T14:03:40.539Z,2.90
2023-02-24T14:04:55.917Z,3.40
2023-02-24T14:06:02.306Z,3.22
2023-02-24T14:07:21.592Z,4.07
2023-02-24T14:09:10.747Z,2.80
2023-02-24T14:10:28.910Z,3.33
2023-02-24T14:11:39.018Z,3.22
2023-02-24T14:12:52.954Z,3.85
2023-02-24T14:14:09.809Z,4.18
2023-02-24T14:15:22.655Z,3.03
2023-02-24T14:16:43.947Z,2.90
2023-02-24T14:18:04.009Z,2.35
2023-02-24T14:19:30.252Z,2.92
2023-02-24T14:20:44.386Z,3.28
2023-02-24T14:22:00.080Z,2.70
2023-02-24T14:23:35.864Z,3.33
2023-02-24T14:24:43.845Z,3.25
2023-02-24T14:27:00.637Z,2.55
2023-02-24T14:28:03.508Z,2.72
2023-02-24T14:31:42.951Z,3.13
2023-02-24T14:33:05.891Z,2.33
2023-02-24T14:34:23.114Z,3.08
2023-02-24T14:36:15.062Z,2.92
2023-02-24T14:37:46.352Z,2.53
2023-02-24T14:39:31.419Z,2.78
2023-02-24T14:41:32.790Z,2.15
2023-02-24T14:45:28.736Z,2.92
2023-02-24T14:46:52.381Z,2.38
2023-02-24T14:48:04.110Z,3.08
2023-02-24T14:50:33.147Z,2.25
2023-02-24T14:54:58.525Z,2.85
2023-02-24T14:56:34.365Z,2.40
2023-02-24T14:58:39.796Z,3.22
2023-02-24T15:00:01.483Z,2.75
2023-02-24T15:02:05.517Z,2.92
2023-02-24T15:03:54.831Z,2.97
2023-02-24T15:05:18.007Z,2.25
2023-02-24T15:06:50.742Z,3.50
2023-02-24T15:08:05.841Z,2.60
2023-02-24T15:09:26.615Z,2.83
2023-02-24T15:10:35.650Z,2.38
2023-02-24T15:11:51.125Z,3.97
2023-02-24T15:13:12.870Z,3.22
2023-02-24T15:14:27.787Z,4.35
2023-02-24T15:15:46.640Z,2.75
2023-02-24T15:17:03.427Z,2.40
2023-02-24T15:18:26.825Z,2.85
2023-02-24T15:19:49.586Z,2.83
2023-02-24T15:21:31.745Z,3.13
2023-02-24T15:22:41.825Z,2.35
2023-02-24T15:23:48.830Z,3.35
2023-02-24T15:25:24.051Z,4.13
2023-02-24T15:26:43.629Z,2.67
2023-02-24T15:28:18.936Z,3.05
2023-02-24T15:29:35.493Z,2.50
2023-02-24T15:31:10.935Z,3.70
2023-02-24T15:32:56.792Z,2.78
2023-02-24T15:34:44.191Z,3.08
2023-02-24T15:36:09.528Z,2.10
2023-02-24T15:37:49.575Z,2.90
2023-02-24T15:39:04.378Z,4.32
2023-02-24T15:42:24.555Z,2.45
2023-02-24T15:43:51.358Z,2.60
2023-02-24T15:47:03.888Z,2.40
2023-02-24T15:48:49.346Z,2.28
2023-02-24T15:50:17.175Z,3.97
2023-02-24T15:51:58.274Z,4.63
2023-02-24T15:53:27.274Z,3.20
2023-02-24T15:54:46.808Z,3.95
2023-02-24T15:56:25.791Z,3.45
2023-02-24T15:57:45.443Z,4.22
2023-02-24T15:59:02.747Z,3.88
2023-02-24T16:00:44.590Z,4.07
2023-02-24T16:01:52.393Z,2.92
2023-02-24T16:03:23.879Z,3.00
2023-02-24T16:05:01.766Z,2.70
2023-02-24T16:06:26.510Z,3.20
2023-02-24T16:07:39.417Z,2.45
2023-02-24T16:09:13.378Z,2.63
2023-02-24T16:10:34.205Z,2.75
2023-02-24T16:11:57.924Z,3.47
2023-02-24T16:13:17.608Z,2.97
2023-02-24T16:14:22.528Z,3.33
2023-02-24T16:15:56.100Z,3.67
2023-02-24T16:17:34.476Z,3.70
2023-02-24T16:18:59.974Z,2.40
2023-02-24T16:20:41.010Z,3.20
2023-02-24T16:21:53.644Z,2.65
2023-02-24T16:23:16.795Z,2.70
2023-02-24T16:24:29.411Z,2.60
2023-02-24T16:26:32.282Z,3.20
2023-02-24T16:28:04.861Z,2.90
2023-02-24T16:29:29.952Z,3.38
2023-02-24T16:30:58.612Z,3.58
2023-02-24T16:34:31.642Z,3.45
2023-02-24T16:36:10.324Z,3.30
2023-02-24T16:37:52.172Z,2.38
2023-02-24T16:39:05.714Z,3.95
2023-02-24T16:40:38.229Z,3.30
2023-02-24T16:41:58.387Z,2.67
2023-02-24T16:44:44.875Z,2.42
2023-02-24T16:47:33.537Z,2.55
2023-02-24T16:49:14.344Z,2.90
2023-02-24T16:50:50.156Z,2.72
2023-02-24T16:53:50.483Z,3.33
2023-02-24T16:55:13.858Z,2.90
2023-02-24T16:59:34.725Z,3.22
2023-02-24T17:04:31.262Z,3.22
2023-02-24T17:10:51.910Z,3.35
2023-02-24T17:12:01.472Z,3.35
2023-02-24T17:15:28.806Z,2.80
2023-02-24T17:18:21.560Z,2.58
2023-02-24T17:19:41.624Z,3.13
2023-02-24T17:21:39.444Z,2.72
2023-02-24T17:22:57.857Z,3.58
2023-02-24T17:24:42.918Z,3.13
2023-02-24T17:29:00.548Z,3.45
2023-02-24T17:32:35.077Z,2.75
2023-02-24T17:33:48.137Z,3.78
2023-02-24T20:19:19.768Z,3.83
2023-02-24T20:20:25.793Z,3.83
2023-02-24T20:21:33.204Z,3.88
2023-02-24T20:22:39.234Z,3.80
2023-02-24T20:23:48.340Z,3.17
2023-02-24T20:24:55.131Z,4.43
2023-02-24T20:26:14.110Z,4.47
2023-02-24T20:29:31.074Z,3.78
2023-02-24T20:31:01.756Z,3.65
2023-02-24T20:32:20.798Z,3.58
2023-02-24T20:33:29.667Z,4.20
2023-02-24T20:35:16.174Z,3.95
2023-02-24T20:36:37.474Z,4.50
